createdAt,value
2022-09-25T00:00:20.124Z,88.8
2022-09-25T00:01:23.799Z,88.8
2022-09-25T00:02:27.918Z,88.7
2022-09-25T00:03:31.092Z,88.4
2022-09-25T00:04:34.266Z,88.5
2022-09-25T00:05:37.386Z,88.4
2022-09-25T00:06:39.552Z,88.5
2022-09-25T00:07:42.979Z,88.5
2022-09-25T00:08:46.334Z,88.4
2022-09-25T00:09:49.131Z,88.3
2022-09-25T00:10:51.938Z,88.4
2022-09-25T00:11:55.039Z,88.3
2022-09-25T00:12:57.844Z,88.3
2022-09-25T00:14:00.561Z,88.1
2022-09-25T00:15:03.610Z,88.4
2022-09-25T00:16:07.564Z,88.3
2022-09-25T00:17:10.177Z,88.2
2022-09-25T00:18:13.428Z,88.3
2022-09-25T00:19:16.558Z,88.2
2022-09-25T00:20:19.237Z,88
2022-09-25T00:21:22.876Z,88.1
2022-09-25T00:22:25.865Z,88.1
2022-09-25T00:23:29.022Z,87.9
2022-09-25T00:24:32.443Z,88
2022-09-25T00:25:35.687Z,87.9
2022-09-25T00:26:39.171Z,87.9
2022-09-25T00:27:42.232Z,88.2
2022-09-25T00:28:45.596Z,88.3
2022-09-25T00:29:48.203Z,88.2
2022-09-25T00:30:51.925Z,88.3
2022-09-25T00:31:56.015Z,88.1
2022-09-25T00:32:59.159Z,87.8
2022-09-25T00:34:02.358Z,88
2022-09-25T00:35:05.490Z,88.1
2022-09-25T00:36:08.307Z,88
2022-09-25T00:37:11.485Z,88.1
2022-09-25T00:38:14.551Z,88
2022-09-25T00:39:17.075Z,88
2022-09-25T00:40:20.831Z,88.1
2022-09-25T00:41:23.223Z,88.2
2022-09-25T00:42:25.920Z,88.3
2022-09-25T00:43:29.256Z,88.1
2022-09-25T00:44:32.250Z,88.1
2022-09-25T00:45:35.321Z,88.1
2022-09-25T00:46:38.645Z,88.2
2022-09-25T00:47:42.679Z,88.4
2022-09-25T00:48:46.060Z,88.6
2022-09-25T00:49:48.883Z,88.3
2022-09-25T00:50:51.389Z,88.2
2022-09-25T00:51:55.992Z,88.1
2022-09-25T00:52:58.929Z,88.1
2022-09-25T00:54:02.429Z,88.1
2022-09-25T00:55:06.320Z,88.3
2022-09-25T00:56:09.652Z,88.3
2022-09-25T00:57:12.535Z,88.1
2022-09-25T00:58:15.894Z,88
2022-09-25T00:59:18.133Z,87.9
2022-09-25T01:00:20.530Z,88.1
2022-09-25T01:01:23.973Z,88.1
2022-09-25T01:02:28.155Z,88
2022-09-25T01:03:32.583Z,88.5
2022-09-25T01:04:35.829Z,88.3
2022-09-25T01:05:39.686Z,88.3
2022-09-25T01:06:43.031Z,88.4
2022-09-25T01:07:46.132Z,88.3
2022-09-25T01:08:48.940Z,88.4
2022-09-25T01:09:52.768Z,88.4
2022-09-25T01:10:55.484Z,88.3
2022-09-25T01:11:58.852Z,88.2
2022-09-25T01:13:01.656Z,88.2
2022-09-25T01:14:04.548Z,88.2
2022-09-25T01:15:07.695Z,88.2
2022-09-25T01:16:11.089Z,88.5
2022-09-25T01:17:14.262Z,88.5
2022-09-25T01:18:18.068Z,88.5
2022-09-25T01:19:21.909Z,88.3
2022-09-25T01:20:24.713Z,88.3
2022-09-25T01:21:28.160Z,88.3
2022-09-25T01:22:31.045Z,88.4
2022-09-25T01:23:34.472Z,88.7
2022-09-25T01:24:37.018Z,88.6
2022-09-25T01:25:42.140Z,88.5
2022-09-25T01:26:45.322Z,88.7
2022-09-25T01:27:48.395Z,88.6
2022-09-25T01:28:51.178Z,89
2022-09-25T01:29:54.559Z,89
2022-09-25T01:30:57.603Z,88.8
2022-09-25T01:32:00.525Z,88.6
2022-09-25T01:33:02.929Z,88.7
2022-09-25T01:34:06.388Z,88.7
2022-09-25T01:35:10.058Z,88.6
2022-09-25T01:36:13.137Z,89
2022-09-25T01:37:16.595Z,89
2022-09-25T01:38:19.942Z,88.8
2022-09-25T01:39:23.100Z,88.9
2022-09-25T01:40:26.467Z,88.8
2022-09-25T01:41:29.049Z,88.6
2022-09-25T01:42:31.486Z,88.7
2022-09-25T01:43:35.205Z,88.9
2022-09-25T01:44:38.305Z,88.6
2022-09-25T01:45:41.424Z,88.7
2022-09-25T01:46:44.995Z,89.1
2022-09-25T01:47:47.725Z,89.1
2022-09-25T01:48:51.181Z,89.4
2022-09-25T01:49:54.661Z,89.9
2022-09-25T01:50:58.853Z,89.8
2022-09-25T01:52:01.285Z,89.6
2022-09-25T01:53:04.367Z,89.8
2022-09-25T01:54:07.913Z,89.7
2022-09-25T01:55:11.606Z,89.4
2022-09-25T01:56:15.045Z,89.2
2022-09-25T01:57:17.281Z,89.1
2022-09-25T01:58:19.721Z,89.1
2022-09-25T01:59:22.238Z,89.1
2022-09-25T02:00:25.127Z,89.2
2022-09-25T02:01:28.077Z,89.4
2022-09-25T02:02:31.688Z,89.3
2022-09-25T02:03:34.938Z,89.3
2022-09-25T02:04:38.560Z,89.3
2022-09-25T02:05:42.078Z,89.4
2022-09-25T02:06:45.891Z,89.4
2022-09-25T02:07:49.364Z,89.6
2022-09-25T02:08:52.814Z,89.8
2022-09-25T02:09:55.599Z,89.7
2022-09-25T02:10:58.476Z,89.6
2022-09-25T02:12:01.655Z,89.4
2022-09-25T02:13:05.155Z,89.4
2022-09-25T02:14:08.314Z,89.4
2022-09-25T02:15:11.230Z,89.7
2022-09-25T02:16:14.449Z,90
2022-09-25T02:17:18.323Z,90.3
2022-09-25T02:18:20.285Z,90.2
2022-09-25T02:19:23.364Z,90
2022-09-25T02:20:26.816Z,90
2022-09-25T02:21:30.016Z,89.7
2022-09-25T02:22:33.638Z,89.8
2022-09-25T02:23:36.751Z,89.9
2022-09-25T02:24:40.200Z,89.9
2022-09-25T02:25:42.640Z,90.4
2022-09-25T02:26:45.812Z,90.3
2022-09-25T02:27:48.613Z,90.2
2022-09-25T02:28:52.068Z,90.3
2022-09-25T02:29:55.059Z,90.4
2022-09-25T02:30:58.729Z,90.3
2022-09-25T02:32:01.794Z,90.2
2022-09-25T02:33:04.582Z,90.1
2022-09-25T02:34:17.220Z,90.1
2022-09-25T02:35:21.415Z,90.5
2022-09-25T02:36:24.017Z,90.3
2022-09-25T02:37:26.761Z,90.5
2022-09-25T02:38:30.111Z,90.8
2022-09-25T02:39:33.096Z,90.9
2022-09-25T02:40:36.266Z,90.6
2022-09-25T02:41:39.507Z,90.7
2022-09-25T02:42:42.300Z,90.7
2022-09-25T02:43:45.200Z,90.9
2022-09-25T02:44:47.724Z,90.9
2022-09-25T02:45:50.766Z,90.9
2022-09-25T02:46:53.518Z,91.1
2022-09-25T02:47:57.367Z,91.1
2022-09-25T02:49:00.509Z,91.1
2022-09-25T02:50:03.464Z,90.9
2022-09-25T02:51:06.447Z,91.2
2022-09-25T02:52:09.796Z,91.2
2022-09-25T02:53:12.622Z,91.1
2022-09-25T02:54:16.462Z,91
2022-09-25T02:55:19.342Z,91.3
2022-09-25T02:56:22.461Z,91.3
2022-09-25T02:57:25.245Z,91.4
2022-09-25T02:58:28.391Z,91.3
2022-09-25T02:59:32.033Z,91.3
2022-09-25T03:00:35.185Z,91.5
2022-09-25T03:01:38.080Z,91.4
2022-09-25T03:02:41.685Z,91.5
2022-09-25T03:03:44.958Z,91.6
2022-09-25T03:04:47.570Z,91.3
2022-09-25T03:05:50.221Z,91.2
2022-09-25T03:06:53.571Z,91.3
2022-09-25T03:07:56.723Z,91.2
2022-09-25T03:08:59.889Z,91.2
2022-09-25T03:10:03.979Z,91.2
2022-09-25T03:11:07.422Z,91.2
2022-09-25T03:12:09.738Z,91.5
2022-09-25T03:13:13.182Z,91.8
2022-09-25T03:14:16.322Z,91.4
2022-09-25T03:15:19.608Z,91.2
2022-09-25T03:16:22.716Z,91.2
2022-09-25T03:17:26.072Z,91.1
2022-09-25T03:18:29.786Z,91.3
2022-09-25T03:19:32.578Z,91.5
2022-09-25T03:20:34.905Z,91.8
2022-09-25T03:21:37.974Z,91.8
2022-09-25T03:22:41.321Z,91.7
2022-09-25T03:23:44.119Z,91.8
2022-09-25T03:24:46.935Z,91.9
2022-09-25T03:25:51.913Z,91.7
2022-09-25T03:26:54.808Z,91.7
2022-09-25T03:27:58.453Z,91.5
2022-09-25T03:29:01.321Z,91.3
2022-09-25T03:30:04.464Z,91.2
2022-09-25T03:31:08.169Z,91
2022-09-25T03:32:11.612Z,91.3
2022-09-25T03:33:14.742Z,91.1
2022-09-25T03:34:17.193Z,91.2
2022-09-25T03:35:20.272Z,91.2
2022-09-25T03:36:25.002Z,91.2
2022-09-25T03:37:28.713Z,91.1
2022-09-25T03:38:31.699Z,91.2
2022-09-25T03:39:34.344Z,91.1
2022-09-25T03:40:37.936Z,90.9
2022-09-25T03:41:41.958Z,90.9
2022-09-25T03:42:44.482Z,91
2022-09-25T03:43:47.457Z,91.1
2022-09-25T03:44:50.720Z,91.1
2022-09-25T03:45:53.769Z,90.9
2022-09-25T03:46:57.317Z,90.9
2022-09-25T03:47:59.561Z,90.7
2022-09-25T03:49:02.627Z,90.9
2022-09-25T03:50:05.899Z,90.9
2022-09-25T03:51:08.713Z,91.1
2022-09-25T03:52:12.346Z,91.1
2022-09-25T03:53:15.978Z,91.1
2022-09-25T03:54:18.973Z,91
2022-09-25T03:55:21.776Z,91.1
2022-09-25T03:56:24.350Z,91.2
2022-09-25T03:57:28.547Z,90.9
2022-09-25T03:58:31.624Z,91
2022-09-25T03:59:34.624Z,91.2
2022-09-25T04:00:37.586Z,91.3
2022-09-25T04:01:41.157Z,91.7
2022-09-25T04:02:44.388Z,91.5
2022-09-25T04:03:48.026Z,91.4
2022-09-25T04:04:51.398Z,91.4
2022-09-25T04:05:54.282Z,91.3
2022-09-25T04:06:56.796Z,91.2
2022-09-25T04:07:59.397Z,91.2
2022-09-25T04:09:02.473Z,91
2022-09-25T04:10:05.001Z,91.1
2022-09-25T04:11:07.773Z,91
2022-09-25T04:12:10.961Z,91
2022-09-25T04:13:15.233Z,91.2
2022-09-25T04:14:17.982Z,91.3
2022-09-25T04:15:20.856Z,91.4
2022-09-25T04:16:24.300Z,91.3
2022-09-25T04:17:27.552Z,91.3
2022-09-25T04:18:30.321Z,91.1
2022-09-25T04:19:33.128Z,91
2022-09-25T04:20:36.274Z,91
2022-09-25T04:21:39.337Z,90.8
2022-09-25T04:22:42.125Z,90.8
2022-09-25T04:23:45.310Z,90.8
2022-09-25T04:24:48.756Z,90.7
2022-09-25T04:25:51.679Z,90.7
2022-09-25T04:26:54.440Z,90.8
2022-09-25T04:27:57.683Z,90.8
2022-09-25T04:29:02.055Z,90.7
2022-09-25T04:30:05.514Z,90.6
2022-09-25T04:31:08.784Z,90.8
2022-09-25T04:32:11.733Z,90.7
2022-09-25T04:33:14.993Z,90.7
2022-09-25T04:34:18.736Z,91
2022-09-25T04:35:21.522Z,91.1
2022-09-25T04:36:25.255Z,91.1
2022-09-25T04:37:27.880Z,91.1
2022-09-25T04:38:30.886Z,91.1
2022-09-25T04:39:33.831Z,91
2022-09-25T04:40:37.749Z,91.4
2022-09-25T04:41:41.075Z,91.4
2022-09-25T04:42:44.586Z,91.8
2022-09-25T04:43:47.795Z,92
2022-09-25T04:44:51.781Z,91.8
2022-09-25T04:45:55.443Z,91.8
2022-09-25T04:46:58.727Z,91.5
2022-09-25T04:48:01.785Z,91.4
2022-09-25T04:49:05.243Z,91.4
2022-09-25T04:50:08.270Z,91.5
2022-09-25T04:51:11.326Z,91.4
2022-09-25T04:52:14.545Z,91.3
2022-09-25T04:53:17.602Z,91.6
2022-09-25T04:54:21.276Z,91.7
2022-09-25T04:55:23.712Z,91.6
2022-09-25T04:56:26.849Z,91.8
2022-09-25T04:58:00.427Z,91.9
2022-09-25T04:59:03.785Z,91.9
2022-09-25T05:00:07.849Z,91.8
2022-09-25T05:01:10.932Z,91.9
2022-09-25T05:02:14.094Z,91.8
2022-09-25T05:03:18.246Z,91.9
2022-09-25T05:04:21.654Z,91.8
2022-09-25T05:05:24.552Z,91.8
2022-09-25T05:06:27.148Z,91.9
2022-09-25T05:07:30.497Z,91.9
2022-09-25T05:08:33.567Z,91.9
2022-09-25T05:09:36.639Z,92.1
2022-09-25T05:10:39.432Z,92.2
2022-09-25T05:11:41.763Z,92.4
2022-09-25T05:12:45.379Z,92.8
2022-09-25T05:13:48.390Z,92.5
2022-09-25T05:14:51.397Z,92.3
2022-09-25T05:15:54.874Z,92.2
2022-09-25T05:16:58.180Z,92.1
2022-09-25T05:18:00.983Z,92
2022-09-25T05:19:04.060Z,91.8
2022-09-25T05:20:06.779Z,91.8
2022-09-25T05:21:10.142Z,92
2022-09-25T05:22:12.659Z,92
2022-09-25T05:23:16.401Z,92
2022-09-25T05:24:20.135Z,92.1
2022-09-25T05:25:22.925Z,92
2022-09-25T05:26:25.071Z,91.9
2022-09-25T05:27:27.607Z,91.8
2022-09-25T05:28:30.400Z,92.1
2022-09-25T05:29:33.681Z,91.9
2022-09-25T05:30:36.847Z,91.9
2022-09-25T05:31:41.446Z,91.8
2022-09-25T05:32:44.804Z,92
2022-09-25T05:33:47.620Z,92.2
2022-09-25T05:34:51.019Z,92.6
2022-09-25T05:35:53.466Z,92.3
2022-09-25T05:36:56.431Z,92.3
2022-09-25T05:37:59.766Z,92.3
2022-09-25T05:39:02.569Z,92.4
2022-09-25T05:40:06.002Z,92.6
2022-09-25T05:41:09.154Z,92.5
2022-09-25T05:42:12.215Z,92.4
2022-09-25T05:43:15.091Z,92.3
2022-09-25T05:44:18.152Z,92.3
2022-09-25T05:45:21.308Z,92.5
2022-09-25T05:46:24.206Z,92.6
2022-09-25T05:47:28.237Z,92.7
2022-09-25T05:48:31.595Z,92.6
2022-09-25T05:49:34.459Z,92.4
2022-09-25T05:50:37.561Z,92.2
2022-09-25T05:51:40.270Z,92.4
2022-09-25T05:52:43.171Z,92.7
2022-09-25T05:53:46.329Z,92.6
2022-09-25T05:54:49.552Z,92.6
2022-09-25T05:55:51.722Z,92.6
2022-09-25T05:56:55.128Z,92.6
2022-09-25T05:57:57.915Z,92.8
2022-09-25T05:59:00.796Z,92.7
2022-09-25T06:00:03.662Z,92.9
2022-09-25T06:01:06.636Z,92.7
2022-09-25T06:02:10.190Z,92.7
2022-09-25T06:03:14.836Z,92.5
2022-09-25T06:04:18.673Z,92.4
2022-09-25T06:05:21.821Z,92.5
2022-09-25T06:06:28.716Z,92.3
2022-09-25T06:07:31.890Z,92.3
2022-09-25T06:08:35.350Z,92.6
2022-09-25T06:09:38.143Z,92.6
2022-09-25T06:10:40.924Z,92.7
2022-09-25T06:11:43.999Z,92.9
2022-09-25T06:12:46.900Z,92.8
2022-09-25T06:13:55.479Z,92.8
2022-09-25T06:14:58.541Z,92.8
2022-09-25T06:16:01.748Z,92.9
2022-09-25T06:17:05.393Z,92.8
2022-09-25T06:18:08.483Z,92.6
2022-09-25T06:19:12.436Z,92.5
2022-09-25T06:20:17.849Z,92.5
2022-09-25T06:21:20.917Z,92.3
2022-09-25T06:22:23.996Z,92.2
2022-09-25T06:23:26.888Z,92.2
2022-09-25T06:24:29.351Z,92.3
2022-09-25T06:25:32.785Z,92.4
2022-09-25T06:26:36.245Z,92.4
2022-09-25T06:27:39.314Z,92.7
2022-09-25T06:28:42.676Z,92.6
2022-09-25T06:29:45.575Z,92.4
2022-09-25T06:30:49.398Z,92.2
2022-09-25T06:31:52.105Z,92.1
2022-09-25T06:32:54.658Z,92.3
2022-09-25T06:33:57.825Z,92.4
2022-09-25T06:35:01.635Z,92.7
2022-09-25T06:36:04.793Z,92.9
2022-09-25T06:37:07.897Z,92.9
2022-09-25T06:38:10.801Z,93.3
2022-09-25T06:39:12.965Z,93.2
2022-09-25T06:40:16.644Z,93
2022-09-25T06:41:19.954Z,92.8
2022-09-25T06:42:21.937Z,92.9
2022-09-25T06:43:24.734Z,92.7
2022-09-25T06:44:27.814Z,92.6
2022-09-25T06:45:31.256Z,92.5
2022-09-25T06:46:34.726Z,92.3
2022-09-25T06:47:37.925Z,92.3
2022-09-25T06:48:41.269Z,92.5
2022-09-25T06:49:44.345Z,92.4
2022-09-25T06:50:48.256Z,92.2
2022-09-25T06:51:51.829Z,92.2
2022-09-25T06:52:54.770Z,92.4
2022-09-25T06:53:57.211Z,92.5
2022-09-25T06:55:00.080Z,92.7
2022-09-25T06:56:02.986Z,92.8
2022-09-25T06:57:05.977Z,92.5
2022-09-25T06:58:09.676Z,92.5
2022-09-25T06:59:12.285Z,92.7
2022-09-25T07:00:15.462Z,92.6
2022-09-25T07:01:18.287Z,92.5
2022-09-25T07:02:21.927Z,92.6
2022-09-25T07:03:25.103Z,92.3
2022-09-25T07:04:28.357Z,92.5
2022-09-25T07:05:30.966Z,92.7
2022-09-25T07:06:35.150Z,92.9
2022-09-25T07:07:38.286Z,92.8
2022-09-25T07:08:41.759Z,93
2022-09-25T07:09:44.912Z,92.9
2022-09-25T07:10:47.151Z,92.9
2022-09-25T07:11:50.882Z,93
2022-09-25T07:12:53.581Z,92.9
2022-09-25T07:13:57.140Z,92.8
2022-09-25T07:14:59.670Z,93
2022-09-25T07:16:02.772Z,92.9
2022-09-25T07:17:05.778Z,92.6
2022-09-25T07:18:08.485Z,92.8
2022-09-25T07:19:11.962Z,92.7
2022-09-25T07:20:15.423Z,92.6
2022-09-25T07:21:18.735Z,92.5
2022-09-25T07:22:22.458Z,92.5
2022-09-25T07:23:25.523Z,92.3
2022-09-25T07:24:28.324Z,92.4
2022-09-25T07:25:31.142Z,92.8
2022-09-25T07:26:36.239Z,92.9
2022-09-25T07:27:46.356Z,92.7
2022-09-25T07:28:49.627Z,92.7
2022-09-25T07:29:52.408Z,92.9
2022-09-25T07:30:55.494Z,92.8
2022-09-25T07:31:58.385Z,92.7
2022-09-25T07:33:01.568Z,92.6
2022-09-25T07:34:04.497Z,92.5
2022-09-25T07:35:07.626Z,92.4
2022-09-25T07:36:11.270Z,92.4
2022-09-25T07:37:14.113Z,92.5
2022-09-25T07:38:18.371Z,92.5
2022-09-25T07:39:21.715Z,92.8
2022-09-25T07:40:25.459Z,92.7
2022-09-25T07:41:29.085Z,92.7
2022-09-25T07:42:32.599Z,92.6
2022-09-25T07:43:35.704Z,92.5
2022-09-25T07:44:48.848Z,92.9
2022-09-25T07:45:53.417Z,92.7
2022-09-25T07:46:56.683Z,92.6
2022-09-25T07:47:58.912Z,92.4
2022-09-25T07:49:01.456Z,92.5
2022-09-25T07:50:04.337Z,92.5
2022-09-25T07:51:07.150Z,92.5
2022-09-25T07:52:10.365Z,92.2
2022-09-25T07:53:13.896Z,92.2
2022-09-25T07:54:18.010Z,92.2
2022-09-25T07:55:20.820Z,92.1
2022-09-25T07:56:23.989Z,92.3
2022-09-25T07:57:27.555Z,92.2
2022-09-25T07:58:30.827Z,92.1
2022-09-25T07:59:33.281Z,92.2
2022-09-25T08:00:36.142Z,92.3
2022-09-25T08:01:54.505Z,92.2
2022-09-25T08:02:58.238Z,92.1
2022-09-25T08:04:01.624Z,92.1
2022-09-25T08:05:04.902Z,91.9
2022-09-25T08:06:08.070Z,91.5
2022-09-25T08:07:10.247Z,91.4
2022-09-25T08:08:12.589Z,91.3
2022-09-25T08:09:16.069Z,91.4
2022-09-25T08:10:20.069Z,91
2022-09-25T08:11:22.782Z,91
2022-09-25T08:12:26.174Z,91
2022-09-25T08:13:29.255Z,91.1
2022-09-25T08:14:31.764Z,91.5
2022-09-25T08:15:35.296Z,91.8
2022-09-25T08:16:38.969Z,91.4
2022-09-25T08:17:41.201Z,91.1
2022-09-25T08:18:44.268Z,91.4
2022-09-25T08:19:47.343Z,91.7
2022-09-25T08:20:50.690Z,91.6
2022-09-25T08:21:53.575Z,91.2
2022-09-25T08:22:56.171Z,91.3
2022-09-25T08:23:59.524Z,91.5
2022-09-25T08:25:03.017Z,91.4
2022-09-25T08:26:06.563Z,91.1
2022-09-25T08:27:10.027Z,91
2022-09-25T08:28:13.262Z,91
2022-09-25T08:29:16.338Z,90.8
2022-09-25T08:30:19.410Z,90.9
2022-09-25T08:31:23.211Z,90.9
2022-09-25T08:32:25.892Z,90.8
2022-09-25T08:33:28.697Z,90.4
2022-09-25T08:34:49.884Z,90.3
2022-09-25T08:35:53.248Z,90.4
2022-09-25T08:36:55.690Z,90.2
2022-09-25T08:37:58.846Z,90.1
2022-09-25T08:39:01.659Z,90
2022-09-25T08:40:04.832Z,89.7
2022-09-25T08:41:08.073Z,89.8
2022-09-25T08:42:11.959Z,89.6
2022-09-25T08:43:14.600Z,89.3
2022-09-25T08:44:16.759Z,89.2
2022-09-25T08:45:23.905Z,89.5
2022-09-25T08:46:27.774Z,89.4
2022-09-25T08:47:31.038Z,89.8
2022-09-25T08:48:33.956Z,89.7
2022-09-25T08:49:37.708Z,89.5
2022-09-25T08:50:40.322Z,89.6
2022-09-25T08:51:43.492Z,89.6
2022-09-25T08:52:46.552Z,89.5
2022-09-25T08:53:48.696Z,89.4
2022-09-25T08:54:51.480Z,89.3
2022-09-25T08:55:54.347Z,89.5
2022-09-25T08:56:57.213Z,90
2022-09-25T08:58:01.184Z,90.4
2022-09-25T08:59:04.357Z,90.1
2022-09-25T09:00:07.433Z,90.1
2022-09-25T09:01:10.239Z,89.8
2022-09-25T09:02:13.537Z,89.8
2022-09-25T09:03:17.127Z,89.8
2022-09-25T09:04:20.382Z,90.1
2022-09-25T09:05:22.911Z,90
2022-09-25T09:06:26.091Z,89.8
2022-09-25T09:07:29.814Z,89.9
2022-09-25T09:08:32.816Z,90.2
2022-09-25T09:09:35.730Z,90.2
2022-09-25T09:10:38.885Z,90.1
2022-09-25T09:11:42.015Z,89.9
2022-09-25T09:12:45.474Z,89.5
2022-09-25T09:13:49.387Z,89.5
2022-09-25T09:14:52.377Z,89.3
2022-09-25T09:15:55.557Z,89.5
2022-09-25T09:16:59.088Z,89.6
2022-09-25T09:18:02.713Z,89.8
2022-09-25T09:19:05.564Z,89.7
2022-09-25T09:20:08.430Z,89.5
2022-09-25T09:21:11.884Z,89.2
2022-09-25T09:22:15.616Z,89.1
2022-09-25T09:23:18.423Z,89.5
2022-09-25T09:24:21.209Z,90
2022-09-25T09:25:24.199Z,90.6
2022-09-25T09:26:27.387Z,90.6
2022-09-25T09:27:30.096Z,90.6
2022-09-25T09:28:33.535Z,90.8
2022-09-25T09:29:37.457Z,90.7
2022-09-25T09:30:40.520Z,90.5
2022-09-25T09:31:43.113Z,90.3
2022-09-25T09:32:46.029Z,90.4
2022-09-25T09:33:48.564Z,90.2
2022-09-25T09:35:08.581Z,90.1
2022-09-25T09:36:12.209Z,90.4
2022-09-25T09:37:15.454Z,90.5
2022-09-25T09:38:17.995Z,90.6
2022-09-25T09:39:21.054Z,90.6
2022-09-25T09:40:24.269Z,90.7
2022-09-25T09:41:26.940Z,90.5
2022-09-25T09:42:30.020Z,90.3
2022-09-25T09:43:32.345Z,90.5
2022-09-25T09:44:35.450Z,90.4
2022-09-25T09:45:39.296Z,89.9
2022-09-25T09:46:42.770Z,90.2
2022-09-25T09:47:45.871Z,89.8
2022-09-25T09:48:49.119Z,89.7
2022-09-25T09:49:52.410Z,90.1
2022-09-25T09:50:55.398Z,90.6
2022-09-25T09:51:57.445Z,90.6
2022-09-25T09:53:00.713Z,90.4
2022-09-25T09:54:03.869Z,89.8
2022-09-25T09:55:07.115Z,89.7
2022-09-25T09:56:10.606Z,89.9
2022-09-25T09:57:13.848Z,89.9
2022-09-25T09:58:17.579Z,89.5
2022-09-25T09:59:21.222Z,89.7
2022-09-25T10:00:24.904Z,90
2022-09-25T10:01:44.745Z,90.1
2022-09-25T10:02:48.760Z,90.3
2022-09-25T10:03:52.598Z,90.3
2022-09-25T10:04:55.493Z,90.8
2022-09-25T10:05:57.971Z,90.6
2022-09-25T10:07:00.684Z,90.3
2022-09-25T10:08:03.577Z,90.1
2022-09-25T10:09:07.223Z,89.8
2022-09-25T10:10:09.843Z,89.5
2022-09-25T10:11:12.904Z,89.3
2022-09-25T10:12:16.632Z,89.4
2022-09-25T10:13:19.719Z,89.3
2022-09-25T10:14:22.590Z,89.4
2022-09-25T10:15:25.196Z,89.2
2022-09-25T10:16:28.015Z,88.9
2022-09-25T10:17:32.108Z,89
2022-09-25T10:18:35.724Z,89
2022-09-25T10:19:38.839Z,89
2022-09-25T10:20:42.291Z,89.3
2022-09-25T10:21:45.181Z,89.3
2022-09-25T10:22:48.324Z,89.3
2022-09-25T10:23:51.768Z,89.3
2022-09-25T10:24:53.701Z,89.2
2022-09-25T10:25:57.455Z,89.1
2022-09-25T10:27:00.530Z,88.9
2022-09-25T10:28:03.609Z,88.5
2022-09-25T10:29:06.483Z,88.6
2022-09-25T10:30:09.661Z,88.7
2022-09-25T10:31:12.680Z,88.5
2022-09-25T10:32:16.156Z,88.5
2022-09-25T10:33:20.050Z,88.8
2022-09-25T10:34:23.067Z,88.7
2022-09-25T10:35:26.358Z,88.6
2022-09-25T10:36:29.438Z,88.4
2022-09-25T10:37:31.967Z,88.4
2022-09-25T10:38:35.311Z,88.3
2022-09-25T10:39:47.952Z,88.5
2022-09-25T10:40:52.225Z,89
2022-09-25T10:41:55.250Z,89.4
2022-09-25T10:42:58.603Z,89.4
2022-09-25T10:44:00.937Z,89.3
2022-09-25T10:45:03.636Z,88.9
2022-09-25T10:46:07.632Z,89
2022-09-25T10:47:10.863Z,88.9
2022-09-25T10:48:14.263Z,89
2022-09-25T10:49:18.458Z,88.7
2022-09-25T10:50:21.616Z,88.4
2022-09-25T10:51:25.260Z,88.2
2022-09-25T10:52:28.449Z,88.6
2022-09-25T10:53:31.883Z,88.3
2022-09-25T10:54:44.700Z,88.4
2022-09-25T10:55:49.042Z,88.4
2022-09-25T10:56:51.550Z,88.8
2022-09-25T10:57:53.449Z,88.7
2022-09-25T10:58:57.094Z,88.5
2022-09-25T11:00:00.436Z,88.7
2022-09-25T11:01:03.067Z,89
2022-09-25T11:02:06.890Z,89.1
2022-09-25T11:03:18.442Z,88.7
2022-09-25T11:04:22.706Z,88.1
2022-09-25T11:05:25.862Z,87.6
2022-09-25T11:06:29.205Z,87.4
2022-09-25T11:07:32.962Z,86.9
2022-09-25T11:08:36.122Z,87.1
2022-09-25T11:09:38.648Z,87.3
2022-09-25T11:10:41.045Z,87.5
2022-09-25T11:11:44.245Z,87
2022-09-25T11:12:47.342Z,87.3
2022-09-25T11:13:50.222Z,87.3
2022-09-25T11:14:53.437Z,87.9
2022-09-25T11:15:56.515Z,87.7
2022-09-25T11:16:59.515Z,87.2
2022-09-25T11:18:02.454Z,86.8
2022-09-25T11:19:06.559Z,87.2
2022-09-25T11:20:10.741Z,86.4
2022-09-25T11:21:13.547Z,86.5
2022-09-25T11:22:16.164Z,86.3
2022-09-25T11:23:18.721Z,86.3
2022-09-25T11:24:22.460Z,86
2022-09-25T11:25:25.671Z,85.7
2022-09-25T11:26:28.822Z,85.9
2022-09-25T11:27:32.641Z,85.8
2022-09-25T11:28:35.915Z,85.3
2022-09-25T11:29:39.017Z,84.5
2022-09-25T11:30:42.226Z,84.5
2022-09-25T11:31:45.512Z,83.7
2022-09-25T11:32:54.106Z,83.4
2022-09-25T11:33:56.982Z,83.2
2022-09-25T11:34:59.799Z,82.7
2022-09-25T11:36:04.172Z,82.8
2022-09-25T11:37:08.083Z,83.1
2022-09-25T11:38:10.792Z,83.2
2022-09-25T11:39:14.927Z,83.2
2022-09-25T11:40:17.875Z,83.6
2022-09-25T11:41:21.470Z,84.6
2022-09-25T11:42:25.191Z,83.7
2022-09-25T11:43:28.207Z,82.9
2022-09-25T11:44:30.714Z,83.2
2022-09-25T11:45:32.675Z,82.9
2022-09-25T11:46:35.547Z,82.9
2022-09-25T11:47:38.724Z,82.9
2022-09-25T11:48:42.085Z,83.9
2022-09-25T11:49:44.868Z,83.6
2022-09-25T11:50:47.393Z,83.4
2022-09-25T11:51:51.666Z,83
2022-09-25T11:52:55.007Z,81.9
2022-09-25T11:54:34.927Z,81.6
2022-09-25T11:55:44.789Z,82.1
2022-09-25T11:56:47.698Z,81.8
2022-09-25T11:57:51.159Z,82.5
2022-09-25T12:00:08.014Z,83.4
2022-09-25T12:01:11.106Z,82.4
2022-09-25T12:02:14.867Z,82.1
2022-09-25T12:03:17.595Z,82.4
2022-09-25T12:04:20.118Z,82.4
2022-09-25T12:05:23.582Z,81.1
2022-09-25T12:06:26.745Z,81.2
2022-09-25T12:07:30.831Z,81.3
2022-09-25T12:08:34.538Z,79.7
2022-09-25T12:09:36.679Z,79
2022-09-25T12:10:39.369Z,78.8
2022-09-25T12:11:46.221Z,78.6
2022-09-25T12:12:49.413Z,79.1
2022-09-25T12:13:52.127Z,78.4
2022-09-25T12:14:54.022Z,78.5
2022-09-25T12:15:57.172Z,77.7
2022-09-25T12:17:00.620Z,77
2022-09-25T12:18:03.136Z,77.9
2022-09-25T12:19:06.224Z,79
2022-09-25T12:20:09.449Z,79.4
2022-09-25T12:21:12.383Z,80.1
2022-09-25T12:22:14.905Z,78.6
2022-09-25T12:23:18.905Z,79.3
2022-09-25T12:24:21.719Z,79
2022-09-25T12:25:25.424Z,79.4
2022-09-25T12:26:28.216Z,79
2022-09-25T12:27:31.346Z,79.5
2022-09-25T12:28:34.423Z,80.1
2022-09-25T12:29:37.590Z,80.5
2022-09-25T12:30:41.030Z,80.5
2022-09-25T12:31:44.177Z,80.5
2022-09-25T12:32:47.446Z,79.9
2022-09-25T12:33:50.514Z,80
2022-09-25T12:34:53.064Z,79.9
2022-09-25T12:35:55.961Z,80.4
2022-09-25T12:36:59.232Z,79.9
2022-09-25T12:38:02.101Z,80.4
2022-09-25T12:39:05.937Z,80.5
2022-09-25T12:40:08.764Z,80
2022-09-25T12:41:12.089Z,80.4
2022-09-25T12:42:15.160Z,80.4
2022-09-25T12:43:18.537Z,79.8
2022-09-25T12:44:28.693Z,79.2
2022-09-25T12:45:31.425Z,79.3
2022-09-25T12:46:34.851Z,79.6
2022-09-25T12:47:37.840Z,79.8
2022-09-25T12:48:40.826Z,79.5
2022-09-25T12:49:44.167Z,79
2022-09-25T12:50:47.048Z,79.8
2022-09-25T12:51:49.870Z,79.4
2022-09-25T12:52:52.303Z,79.2
2022-09-25T12:53:55.677Z,79.4
2022-09-25T12:54:59.936Z,79.3
2022-09-25T12:56:03.000Z,79.8
2022-09-25T12:57:05.911Z,79.9
2022-09-25T12:58:08.091Z,80.7
2022-09-25T12:59:11.731Z,80
2022-09-25T13:00:14.793Z,78.9
2022-09-25T13:01:18.108Z,79.9
2022-09-25T13:02:21.163Z,80.3
2022-09-25T13:03:24.280Z,80.7
2022-09-25T13:04:27.104Z,81.3
2022-09-25T13:05:29.612Z,81.3
2022-09-25T13:06:32.563Z,81.7
2022-09-25T13:07:35.649Z,81.5
2022-09-25T13:08:38.368Z,81
2022-09-25T13:09:40.900Z,81.1
2022-09-25T13:10:44.895Z,81.2
2022-09-25T13:11:48.151Z,81.5
2022-09-25T13:12:51.143Z,81.9
2022-09-25T13:13:54.880Z,82.6
2022-09-25T13:14:58.031Z,81.5
2022-09-25T13:16:01.351Z,81.5
2022-09-25T13:17:05.037Z,81.3
2022-09-25T13:18:08.464Z,81.6
2022-09-25T13:19:11.634Z,82
2022-09-25T13:20:14.714Z,81.8
2022-09-25T13:21:17.429Z,81.9
2022-09-25T13:22:20.601Z,81.2
2022-09-25T13:23:23.346Z,81.4
2022-09-25T13:24:26.216Z,81.6
2022-09-25T13:25:29.315Z,81.6
2022-09-25T13:26:33.265Z,82.6
2022-09-25T13:27:38.505Z,82.3
2022-09-25T13:28:42.224Z,80.5
2022-09-25T13:29:44.938Z,81.1
2022-09-25T13:30:48.393Z,80.9
2022-09-25T13:31:52.367Z,80.3
2022-09-25T13:32:54.810Z,80.5
2022-09-25T13:33:57.600Z,81.5
2022-09-25T13:35:00.606Z,81.9
2022-09-25T13:36:02.932Z,81.3
2022-09-25T13:37:05.173Z,81.2
2022-09-25T13:38:08.432Z,81.2
2022-09-25T13:39:11.889Z,81.3
2022-09-25T13:40:15.802Z,81.4
2022-09-25T13:41:19.126Z,81.2
2022-09-25T13:42:23.330Z,81.4
2022-09-25T13:43:26.396Z,81
2022-09-25T13:44:29.666Z,81.3
2022-09-25T13:45:32.188Z,80.6
2022-09-25T13:46:35.178Z,78.9
2022-09-25T13:47:38.208Z,78.9
2022-09-25T13:48:40.844Z,78.4
2022-09-25T13:49:44.033Z,78
2022-09-25T13:50:46.939Z,78.1
2022-09-25T13:51:49.469Z,78.7
2022-09-25T13:52:52.345Z,79.1
2022-09-25T13:53:54.781Z,78.3
2022-09-25T13:54:57.289Z,79.4
2022-09-25T13:56:00.279Z,79
2022-09-25T13:57:03.154Z,79.3
2022-09-25T13:58:07.060Z,79.7
2022-09-25T13:59:10.981Z,79.9
2022-09-25T14:00:14.144Z,81.3
2022-09-25T14:01:17.627Z,81.3
2022-09-25T14:02:20.772Z,79.6
2022-09-25T14:03:24.196Z,80
2022-09-25T14:04:27.258Z,79.9
2022-09-25T14:05:30.391Z,80
2022-09-25T14:06:40.346Z,80.8
2022-09-25T14:07:43.518Z,81.8
2022-09-25T14:08:46.229Z,81.3
2022-09-25T14:09:49.130Z,81.2
2022-09-25T14:10:52.272Z,81.7